createdAt,value
2019-04-03T15:06:41.312Z,15.80
2019-04-03T15:09:20.296Z,16.00
2019-04-03T15:12:02.652Z,16.30
2019-04-03T15:14:40.266Z,16.20
2019-04-03T15:17:18.246Z,16.30
2019-04-03T15:19:57.079Z,16.10
2019-04-03T15:22:35.028Z,15.70
2019-04-03T15:25:12.922Z,15.60
2019-04-03T15:27:51.913Z,15.20
2019-04-03T15:30:31.933Z,15.10
2019-04-03T15:33:09.483Z,15.00
2019-04-03T15:35:47.068Z,14.90
2019-04-03T15:38:24.678Z,14.90
2019-04-03T15:41:02.342Z,14.80
2019-04-03T15:43:40.700Z,14.80
2019-04-03T15:46:18.055Z,14.70
2019-04-03T15:48:55.385Z,14.70
2019-04-03T15:51:33.350Z,14.60
2019-04-03T15:54:11.296Z,14.60
2019-04-03T15:56:48.888Z,14.60
2019-04-03T15:59:27.141Z,14.50
2019-04-03T16:02:06.133Z,14.50
2019-04-03T16:04:44.652Z,14.40
2019-04-03T16:07:23.231Z,14.30
2019-04-03T16:10:00.881Z,14.30
2019-04-03T16:12:41.780Z,14.20
2019-04-03T16:15:20.210Z,14.10
2019-04-03T16:17:59.040Z,14.00
2019-04-03T16:20:36.247Z,14.00
2019-04-03T16:23:13.823Z,13.90
2019-04-03T16:25:51.206Z,13.90
2019-04-03T16:28:28.724Z,13.80
2019-04-03T16:31:06.284Z,13.70
2019-04-03T16:33:43.650Z,13.60
2019-04-03T16:36:21.117Z,13.60
2019-04-03T16:39:00.705Z,13.60
2019-04-03T16:41:38.816Z,13.50
2019-04-03T16:44:16.521Z,13.50
2019-04-03T16:46:54.143Z,13.40
2019-04-03T16:49:31.574Z,13.30
2019-04-03T16:52:09.289Z,13.30
2019-04-03T16:54:48.558Z,13.20
2019-04-03T16:57:26.502Z,13.10
2019-04-03T17:00:07.236Z,13.00
2019-04-03T17:02:44.833Z,13.00
2019-04-03T17:05:22.323Z,12.90
2019-04-03T17:08:00.623Z,12.80
2019-04-03T17:10:40.475Z,12.60
2019-04-03T17:13:20.335Z,12.60
2019-04-03T17:15:57.350Z,12.40
2019-04-03T17:18:35.976Z,12.40
2019-04-03T17:21:13.436Z,12.30
2019-04-03T17:23:51.552Z,12.20
2019-04-03T17:26:29.614Z,12.20
2019-04-03T17:29:07.485Z,12.10
2019-04-03T17:31:45.562Z,12.00
2019-04-03T17:34:23.017Z,11.90
2019-04-03T17:37:00.741Z,11.70
2019-04-03T17:39:45.224Z,11.70
2019-04-03T17:42:25.599Z,11.60
2019-04-03T17:45:02.673Z,11.50
2019-04-03T17:47:55.768Z,11.50
2019-04-03T17:50:32.886Z,11.30
2019-04-03T17:53:10.789Z,11.30
2019-04-03T17:55:49.207Z,11.20
2019-04-03T17:58:26.979Z,11.20
2019-04-03T18:01:04.776Z,11.10
2019-04-03T18:03:42.345Z,11.00
2019-04-03T18:06:20.300Z,11.00
2019-04-03T18:08:58.058Z,10.90
2019-04-03T18:11:35.482Z,10.80
2019-04-03T18:14:15.290Z,10.70
2019-04-03T18:16:55.170Z,10.60
2019-04-03T18:19:37.785Z,10.60
2019-04-03T18:22:12.755Z,10.50
2019-04-03T18:24:51.851Z,10.40
2019-04-03T18:27:30.129Z,10.40
2019-04-03T18:30:11.896Z,10.30
2019-04-03T18:32:54.146Z,10.30
2019-04-03T18:35:31.660Z,10.30
2019-04-03T18:38:08.994Z,10.30
2019-04-03T18:40:48.246Z,10.30
2019-04-03T18:43:26.179Z,10.30
2019-04-03T18:46:04.202Z,10.30
2019-04-03T18:48:52.857Z,10.20
2019-04-03T18:51:21.736Z,10.20
2019-04-03T18:54:05.482Z,10.20
2019-04-03T18:56:48.165Z,10.10
2019-04-03T18:59:26.899Z,10.00
2019-04-03T19:02:14.416Z,9.90
2019-04-03T19:05:01.110Z,9.80
2019-04-03T19:07:31.097Z,9.80
2019-04-03T19:10:10.701Z,9.80
2019-04-03T19:12:50.134Z,9.80
2019-04-03T19:15:27.926Z,9.70
2019-04-03T19:18:19.460Z,9.70
2019-04-03T19:20:55.756Z,9.60
2019-04-03T19:23:33.582Z,9.60
2019-04-03T19:26:12.786Z,9.60
2019-04-03T19:28:51.088Z,9.50
2019-04-03T19:31:31.017Z,9.40
2019-04-03T19:34:08.947Z,9.40
2019-04-03T19:36:48.499Z,9.40
2019-04-03T19:39:30.941Z,9.40
2019-04-03T19:42:13.204Z,9.30
2019-04-03T19:44:51.314Z,9.30
2019-04-03T19:47:31.122Z,9.30
2019-04-03T19:50:10.332Z,9.20
2019-04-03T19:52:52.051Z,9.20
2019-04-03T19:55:33.984Z,9.20
2019-04-03T19:58:11.778Z,9.10
2019-04-03T20:00:51.651Z,9.10
2019-04-03T20:03:29.955Z,8.90
2019-04-03T20:06:10.981Z,8.90
2019-04-03T20:08:48.670Z,8.90
2019-04-03T20:11:28.695Z,8.80
2019-04-03T20:14:11.297Z,8.70
2019-04-03T20:16:46.713Z,8.70
2019-04-03T20:19:26.736Z,8.60
2019-04-03T20:22:06.729Z,8.60
2019-04-03T20:24:43.756Z,8.60
2019-04-03T20:27:24.102Z,8.50
2019-04-03T20:30:02.089Z,8.50
2019-04-03T20:32:41.147Z,8.50
2019-04-03T20:35:18.982Z,8.50
2019-04-03T20:37:57.127Z,8.40
2019-04-03T20:40:36.120Z,8.40
2019-04-03T20:43:14.006Z,8.30
2019-04-03T20:45:52.051Z,8.20
2019-04-03T20:48:30.309Z,8.20
2019-04-03T20:51:09.013Z,8.20
2019-04-03T20:53:48.160Z,8.20
2019-04-03T20:56:28.998Z,8.10
2019-04-03T20:59:11.229Z,8.10
2019-04-03T21:01:46.671Z,8.10
2019-04-03T21:04:24.485Z,8.00
2019-04-03T21:07:02.074Z,8.00
2019-04-03T21:09:39.835Z,7.90
2019-04-03T21:12:17.364Z,7.90
2019-04-03T21:15:07.347Z,7.80
2019-04-03T21:17:34.361Z,7.70
2019-04-03T21:20:12.242Z,7.70
2019-04-03T21:22:49.615Z,7.80
2019-04-03T21:25:26.713Z,7.70
2019-04-03T21:28:04.447Z,7.70
2019-04-03T21:30:42.158Z,7.60
2019-04-03T21:33:31.765Z,7.60
2019-04-03T21:36:08.957Z,7.60
2019-04-03T21:38:46.709Z,7.60
2019-04-03T21:41:23.777Z,7.60
2019-04-03T21:44:01.983Z,7.60
2019-04-03T21:46:40.246Z,7.60
2019-04-03T21:49:18.116Z,7.60
2019-04-03T21:51:55.443Z,7.60
2019-04-03T21:54:32.679Z,7.50
2019-04-03T21:57:10.375Z,7.50
2019-04-03T21:59:47.596Z,7.60
2019-04-03T22:02:25.093Z,7.50
2019-04-03T22:05:02.336Z,7.50
2019-04-03T22:07:41.296Z,7.50
2019-04-03T22:10:18.906Z,7.40
2019-04-03T22:12:56.707Z,7.40
2019-04-03T22:15:38.103Z,7.40
2019-04-03T22:18:27.297Z,7.40
2019-04-03T22:21:04.601Z,7.40
2019-04-03T22:23:41.890Z,7.40
2019-04-03T22:26:22.413Z,7.40
2019-04-03T22:29:00.155Z,7.30
2019-04-03T22:31:37.433Z,7.30
2019-04-03T22:34:15.160Z,7.30
2019-04-03T22:36:52.696Z,7.20
2019-04-03T22:39:30.156Z,7.20
2019-04-03T22:42:07.551Z,7.20
2019-04-03T22:44:47.730Z,7.10
2019-04-03T22:47:25.044Z,7.10
2019-04-03T22:50:04.799Z,7.20
2019-04-03T22:52:43.107Z,7.20
2019-04-03T22:55:20.895Z,7.20
2019-04-03T22:57:58.528Z,7.10
2019-04-03T23:00:35.750Z,7.10
2019-04-03T23:03:13.429Z,7.10
2019-04-03T23:06:02.300Z,7.00
2019-04-03T23:08:39.957Z,7.00
2019-04-03T23:11:17.328Z,7.10
2019-04-03T23:13:55.012Z,7.10
2019-04-03T23:16:45.707Z,7.10
2019-04-03T23:19:23.733Z,7.10
2019-04-03T23:22:01.452Z,7.10
2019-04-03T23:24:39.087Z,7.00
2019-04-03T23:27:16.329Z,7.10
2019-04-03T23:29:53.523Z,7.10
2019-04-03T23:32:31.138Z,7.10
2019-04-03T23:35:08.273Z,7.20
2019-04-03T23:37:46.010Z,7.10
2019-04-03T23:40:23.609Z,7.20
2019-04-03T23:43:00.915Z,7.20
2019-04-03T23:45:39.035Z,7.10
2019-04-03T23:48:18.358Z,7.00
2019-04-03T23:50:56.155Z,7.10
2019-04-03T23:53:45.203Z,7.00
2019-04-03T23:56:22.961Z,7.00
2019-04-03T23:59:00.158Z,6.90
